Emerald Leader — C6WP4 — position and weather

sailwx.info

Track history (hours):
 
Tides and Currents Weather Stations Pressure Air Temp Water Temp Dewpoint Dewpoint Depression Visibility Wind Speed Wind Dir Waves Ship Positions

Emerald Leader

Last reported at 2017-Feb-25 11:15 UTC. Time now 2017-Feb-25 13:49 UTC.
Position N 38°02' W 009°56'.

Length 176 m; draft 8.4 m.

Type: Cargo ship. MMSI: 308688000.

Date/timePositionNaut miles runAvg speedWind from/ knotsBaromVisibWave heightAir tempDewpointWater temp
2017-Feb-25 11:15N 38°02' W 009°56'1316.5
2017-Feb-25 10:29N 38°14' W 009°60'1516.5
2017-Feb-25 09:33N 38°29' W 010°05'1615.9
2017-Feb-25 08:33N 38°45' W 010°07'1615.8
2017-Feb-25 07:33N 39°01' W 010°06'1615.7
2017-Feb-25 06:33N 39°16' W 010°03'  
2017-Feb-22 15:33N 50°30' W 005°45'1413.9
2017-Feb-22 14:34N 50°39' W 005°28'1413.7
2017-Feb-22 13:33N 50°48' W 005°11'1413.6
2017-Feb-22 12:34N 50°56' W 004°55'1413.5
2017-Feb-22 11:34N 51°05' W 004°38'1414.1
2017-Feb-22 10:34N 51°14' W 004°21'2013.6
2017-Feb-22 09:06N 51°19' W 003°50'2514.7
2017-Feb-22 07:25N 51°22' W 003°11'1516.9
2017-Feb-22 06:33N 51°29' W 002°51'5 4.6
2017-Feb-22 05:34N 51°30' W 002°43'0 0.3
2017-Feb-22 04:32N 51°30' W 002°43'0 0.0
2017-Feb-22 03:32N 51°30' W 002°43'0 0.0
2017-Feb-22 02:32N 51°30' W 002°43'0 0.0
2017-Feb-22 01:32N 51°30' W 002°43'0 0.0
2017-Feb-22 00:32N 51°30' W 002°43'0 0.0
2017-Feb-21 23:32N 51°30' W 002°43'0 0.0
2017-Feb-21 22:32N 51°30' W 002°43'0 0.0
2017-Feb-21 21:32N 51°30' W 002°43'0 0.0
2017-Feb-21 20:32N 51°30' W 002°43'0 0.0
2017-Feb-21 19:32N 51°30' W 002°43'0 0.0
2017-Feb-21 18:32N 51°30' W 002°43'0 0.0
2017-Feb-21 17:32N 51°30' W 002°43'0 0.0
2017-Feb-21 16:32N 51°30' W 002°43'0 0.0
2017-Feb-21 15:32N 51°30' W 002°43'0 0.0
2017-Feb-21 14:32N 51°30' W 002°43'0 0.0
2017-Feb-21 13:32N 51°30' W 002°43'0 0.0
2017-Feb-21 12:32N 51°30' W 002°43'0 0.0
2017-Feb-21 11:32N 51°30' W 002°43'0 0.0
2017-Feb-21 10:32N 51°30' W 002°43'0 0.0
2017-Feb-21 09:32N 51°30' W 002°43'0 0.0
2017-Feb-21 08:32N 51°30' W 002°43'0 0.0
2017-Feb-21 07:32N 51°30' W 002°43'0 0.0
2017-Feb-21 06:32N 51°30' W 002°43'0 0.0
2017-Feb-21 05:32N 51°30' W 002°43'0 0.0
2017-Feb-21 04:32N 51°30' W 002°43'0 0.0
2017-Feb-21 03:32N 51°30' W 002°43'0 0.0
2017-Feb-21 02:32N 51°30' W 002°43'0 0.0
2017-Feb-21 01:32N 51°30' W 002°43'0 0.0
2017-Feb-21 00:32N 51°30' W 002°43'1 0.7
2017-Feb-20 23:33N 51°30' W 002°44'8 7.7
2017-Feb-20 22:33N 51°27' W 002°55'2612.8
2017-Feb-20 20:32N 51°20' W 003°35'1715.7
2017-Feb-20 19:28N 51°19' W 004°02'4 4.5
2017-Feb-20 18:34N 51°19' W 004°09'1 1.0
2017-Feb-20 17:33N 51°19' W 004°10'1 0.9
2017-Feb-20 16:33N 51°20' W 004°11'1 0.7
2017-Feb-20 14:30N 51°21' W 004°10'1213.1
2017-Feb-20 13:33N 51°13' W 004°25'1515.3
2017-Feb-20 12:33N 51°02' W 004°42'1515.3
2017-Feb-20 11:34N 50°52' W 005°01'1515.4
2017-Feb-20 10:33N 50°42' W 005°19'1515.4
2017-Feb-20 09:33N 50°31' W 005°36'1515.4
2017-Feb-20 08:34N 50°20' W 005°53'4310.7
2017-Feb-20 04:33N 49°52' W 005°03'1815.0
2017-Feb-20 03:20N 49°55' W 004°34'1214.6
2017-Feb-20 02:29N 49°55' W 004°15'1414.7
2017-Feb-20 01:33N 49°56' W 003°54'1414.5
2017-Feb-20 00:33N 49°59' W 003°32'1414.5
2017-Feb-19 23:33N 50°00' W 003°09'4615.3
2017-Feb-19 20:33N 50°11' W 001°60'1716.5
2017-Feb-19 19:33N 50°15' W 001°35'3316.3
2017-Feb-19 17:32N 50°22' W 000°44'1615.4
2017-Feb-19 16:31N 50°26' W 000°21'1414.7
2017-Feb-19 15:33N 50°30' E 000°00'1413.8
2017-Feb-19 14:33N 50°34' E 000°22'1413.8
2017-Feb-19 13:33N 50°39' E 000°42'1514.7
2017-Feb-19 12:33N 50°48' E 000°60'1615.7
2017-Feb-19 11:34N 50°59' E 001°18'1615.9
2017-Feb-19 10:33N 51°09' E 001°37'1515.1
2017-Feb-19 09:34N 51°20' E 001°53'1212.4
2017-Feb-19 08:33N 51°22' E 002°13'1413.7
2017-Feb-19 07:33N 51°23' E 002°35'1312.9
2017-Feb-19 06:34N 51°23' E 002°55'1111.2
2017-Feb-19 05:34N 51°20' E 003°13'1 1.3
2017-Feb-19 04:33N 51°19' E 003°13'0 0.3
2017-Feb-19 03:31N 51°19' E 003°13'0 0.0
2017-Feb-19 02:31N 51°19' E 003°13'0 0.0
2017-Feb-19 01:31N 51°19' E 003°13'0 0.0
2017-Feb-19 00:31N 51°19' E 003°13'0 0.0
2017-Feb-18 23:31N 51°19' E 003°13'0 0.0
2017-Feb-18 22:31N 51°19' E 003°13'0 0.0
2017-Feb-18 21:31N 51°19' E 003°13'0 0.0
2017-Feb-18 20:31N 51°19' E 003°13'0 0.0
2017-Feb-18 19:31N 51°19' E 003°13'0 0.0
2017-Feb-18 18:31N 51°19' E 003°13'0 0.0
2017-Feb-18 17:31N 51°19' E 003°13'0 0.0
2017-Feb-18 16:31N 51°19' E 003°13'0 0.0
2017-Feb-18 15:31N 51°19' E 003°13'0 0.0
2017-Feb-18 14:31N 51°19' E 003°13'1 0.8
2017-Feb-18 13:33N 51°18' E 003°14'0 0.0
2017-Feb-18 12:33N 51°18' E 003°14'0 0.0
2017-Feb-18 11:33N 51°18' E 003°14'0 0.0
2017-Feb-18 10:33N 51°18' E 003°14'0 0.0
2017-Feb-18 09:33N 51°18' E 003°14'0 0.0
2017-Feb-18 08:33N 51°18' E 003°14'0 0.0
2017-Feb-18 07:33N 51°18' E 003°14'0 0.0
2017-Feb-18 06:33N 51°18' E 003°14'0 0.0
2017-Feb-18 05:33N 51°18' E 003°14'0 0.0
2017-Feb-18 04:33N 51°18' E 003°14'0 0.0
2017-Feb-18 03:33N 51°18' E 003°14'0 0.0
2017-Feb-18 02:33N 51°18' E 003°14'0 0.0
2017-Feb-18 01:33N 51°18' E 003°14'0 0.0
2017-Feb-18 00:33N 51°18' E 003°14'0 0.0
2017-Feb-17 23:33N 51°18' E 003°14'0 0.0
2017-Feb-17 22:33N 51°18' E 003°14'0 0.0
2017-Feb-17 21:33N 51°18' E 003°14'0 0.0
2017-Feb-17 20:33N 51°18' E 003°14'0 0.0
2017-Feb-17 19:33N 51°18' E 003°14'0 0.0
2017-Feb-17 18:33N 51°18' E 003°14'0 0.0
2017-Feb-17 17:33N 51°18' E 003°14'0 0.0
2017-Feb-17 16:33N 51°18' E 003°14'0 0.0
2017-Feb-17 15:33N 51°18' E 003°14'0 0.0
2017-Feb-17 14:33N 51°18' E 003°14'0 0.0
2017-Feb-17 13:33N 51°18' E 003°14'2 1.7
2017-Feb-17 12:32N 51°20' E 003°13'1 0.6
2017-Feb-17 11:33N 51°20' E 003°13'5 4.5
2017-Feb-17 10:33N 51°24' E 003°07'8 7.6
2017-Feb-17 09:33N 51°22' E 002°55'9 8.7
2017-Feb-17 08:34N 51°25' E 002°42'21 2.9
2017-Feb-17 01:10N 51°45' E 002°53'4 7.3
2017-Feb-17 00:33N 51°44' E 002°47'8 7.9
2017-Feb-16 23:33N 51°36' E 002°43'1010.4
2017-Feb-16 22:33N 51°47' E 002°44'1312.5
2017-Feb-16 21:32N 51°59' E 002°47'3213.9
2017-Feb-16 19:15N 52°25' E 003°16'1214.4
2017-Feb-16 18:25N 52°35' E 003°28'4614.4
2017-Feb-16 15:15N 53°08' E 004°20'13613.4
2017-Feb-16 05:08N 53°52' E 007°56'1016.9
2017-Feb-16 04:33N 53°47' E 008°10'1515.5
2017-Feb-16 03:33N 53°37' E 008°30'4 3.7
2017-Feb-16 02:33N 53°33' E 008°34'0 0.4
2017-Feb-16 01:32N 53°34' E 008°34'0 0.0
2017-Feb-16 00:32N 53°34' E 008°34'0 0.0
2017-Feb-15 23:32N 53°34' E 008°34'0 0.0
2017-Feb-15 22:32N 53°34' E 008°34'0 0.0
2017-Feb-15 21:32N 53°34' E 008°34'0 0.0
2017-Feb-15 20:32N 53°34' E 008°34'0 0.0
2017-Feb-15 19:32N 53°34' E 008°34'0 0.0
2017-Feb-15 18:29N 53°34' E 008°34'0 0.0
2017-Feb-15 17:32N 53°34' E 008°34'0 0.0
2017-Feb-15 16:32N 53°34' E 008°34'0 0.0
2017-Feb-15 15:32N 53°34' E 008°34'0 0.0
2017-Feb-15 14:23N 53°34' E 008°34'0 0.0
2017-Feb-15 13:32N 53°34' E 008°34'0 0.0
2017-Feb-15 12:32N 53°34' E 008°34'0 0.0
2017-Feb-15 11:32N 53°34' E 008°34'  
Track history (hours):
 
Tides and Currents Weather Stations Pressure Air Temp Water Temp Dewpoint Dewpoint Depression Visibility Wind Speed Wind Dir Waves Ship Positions

Emerald Leader

Last reported at 2017-Feb-25 11:15 UTC. Time now 2017-Feb-25 13:49 UTC.
Position N 38°02' W 009°56'.

Length 176 m; draft 8.4 m.

Type: Cargo ship. MMSI: 308688000.

Date/timePositionNaut miles runAvg speedWind from/ knotsBaromVisibWave heightAir tempDewpointWater temp
2017-Feb-25 11:15N 38°02' W 009°56'1316.5
2017-Feb-25 10:29N 38°14' W 009°60'1516.5
2017-Feb-25 09:33N 38°29' W 010°05'1615.9
2017-Feb-25 08:33N 38°45' W 010°07'1615.8
2017-Feb-25 07:33N 39°01' W 010°06'1615.7
2017-Feb-25 06:33N 39°16' W 010°03'  
2017-Feb-22 15:33N 50°30' W 005°45'1413.9
2017-Feb-22 14:34N 50°39' W 005°28'1413.7
2017-Feb-22 13:33N 50°48' W 005°11'1413.6
2017-Feb-22 12:34N 50°56' W 004°55'1413.5
2017-Feb-22 11:34N 51°05' W 004°38'1414.1
2017-Feb-22 10:34N 51°14' W 004°21'2013.6
2017-Feb-22 09:06N 51°19' W 003°50'2514.7
2017-Feb-22 07:25N 51°22' W 003°11'1516.9
2017-Feb-22 06:33N 51°29' W 002°51'5 4.6
2017-Feb-22 05:34N 51°30' W 002°43'0 0.3
2017-Feb-22 04:32N 51°30' W 002°43'0 0.0
2017-Feb-22 03:32N 51°30' W 002°43'0 0.0
2017-Feb-22 02:32N 51°30' W 002°43'0 0.0
2017-Feb-22 01:32N 51°30' W 002°43'0 0.0
2017-Feb-22 00:32N 51°30' W 002°43'0 0.0
2017-Feb-21 23:32N 51°30' W 002°43'0 0.0
2017-Feb-21 22:32N 51°30' W 002°43'0 0.0
2017-Feb-21 21:32N 51°30' W 002°43'0 0.0
2017-Feb-21 20:32N 51°30' W 002°43'0 0.0
2017-Feb-21 19:32N 51°30' W 002°43'0 0.0
2017-Feb-21 18:32N 51°30' W 002°43'0 0.0
2017-Feb-21 17:32N 51°30' W 002°43'0 0.0
2017-Feb-21 16:32N 51°30' W 002°43'0 0.0
2017-Feb-21 15:32N 51°30' W 002°43'0 0.0
2017-Feb-21 14:32N 51°30' W 002°43'0 0.0
2017-Feb-21 13:32N 51°30' W 002°43'0 0.0
2017-Feb-21 12:32N 51°30' W 002°43'0 0.0
2017-Feb-21 11:32N 51°30' W 002°43'0 0.0
2017-Feb-21 10:32N 51°30' W 002°43'0 0.0
2017-Feb-21 09:32N 51°30' W 002°43'0 0.0
2017-Feb-21 08:32N 51°30' W 002°43'0 0.0
2017-Feb-21 07:32N 51°30' W 002°43'0 0.0
2017-Feb-21 06:32N 51°30' W 002°43'0 0.0
2017-Feb-21 05:32N 51°30' W 002°43'0 0.0
2017-Feb-21 04:32N 51°30' W 002°43'0 0.0
2017-Feb-21 03:32N 51°30' W 002°43'0 0.0
2017-Feb-21 02:32N 51°30' W 002°43'0 0.0
2017-Feb-21 01:32N 51°30' W 002°43'0 0.0
2017-Feb-21 00:32N 51°30' W 002°43'1 0.7
2017-Feb-20 23:33N 51°30' W 002°44'8 7.7
2017-Feb-20 22:33N 51°27' W 002°55'2612.8
2017-Feb-20 20:32N 51°20' W 003°35'1715.7
2017-Feb-20 19:28N 51°19' W 004°02'4 4.5
2017-Feb-20 18:34N 51°19' W 004°09'1 1.0
2017-Feb-20 17:33N 51°19' W 004°10'1 0.9
2017-Feb-20 16:33N 51°20' W 004°11'1 0.7
2017-Feb-20 14:30N 51°21' W 004°10'1213.1
2017-Feb-20 13:33N 51°13' W 004°25'1515.3
2017-Feb-20 12:33N 51°02' W 004°42'1515.3
2017-Feb-20 11:34N 50°52' W 005°01'1515.4
2017-Feb-20 10:33N 50°42' W 005°19'1515.4
2017-Feb-20 09:33N 50°31' W 005°36'1515.4
2017-Feb-20 08:34N 50°20' W 005°53'4310.7
2017-Feb-20 04:33N 49°52' W 005°03'1815.0
2017-Feb-20 03:20N 49°55' W 004°34'1214.6
2017-Feb-20 02:29N 49°55' W 004°15'1414.7
2017-Feb-20 01:33N 49°56' W 003°54'1414.5
2017-Feb-20 00:33N 49°59' W 003°32'1414.5
2017-Feb-19 23:33N 50°00' W 003°09'4615.3
2017-Feb-19 20:33N 50°11' W 001°60'1716.5
2017-Feb-19 19:33N 50°15' W 001°35'3316.3
2017-Feb-19 17:32N 50°22' W 000°44'1615.4
2017-Feb-19 16:31N 50°26' W 000°21'1414.7
2017-Feb-19 15:33N 50°30' E 000°00'1413.8
2017-Feb-19 14:33N 50°34' E 000°22'1413.8
2017-Feb-19 13:33N 50°39' E 000°42'1514.7
2017-Feb-19 12:33N 50°48' E 000°60'1615.7
2017-Feb-19 11:34N 50°59' E 001°18'1615.9
2017-Feb-19 10:33N 51°09' E 001°37'1515.1
2017-Feb-19 09:34N 51°20' E 001°53'1212.4
2017-Feb-19 08:33N 51°22' E 002°13'1413.7
2017-Feb-19 07:33N 51°23' E 002°35'1312.9
2017-Feb-19 06:34N 51°23' E 002°55'1111.2
2017-Feb-19 05:34N 51°20' E 003°13'1 1.3
2017-Feb-19 04:33N 51°19' E 003°13'0 0.3
2017-Feb-19 03:31N 51°19' E 003°13'0 0.0
2017-Feb-19 02:31N 51°19' E 003°13'0 0.0
2017-Feb-19 01:31N 51°19' E 003°13'0 0.0
2017-Feb-19 00:31N 51°19' E 003°13'0 0.0
2017-Feb-18 23:31N 51°19' E 003°13'0 0.0
2017-Feb-18 22:31N 51°19' E 003°13'0 0.0
2017-Feb-18 21:31N 51°19' E 003°13'0 0.0
2017-Feb-18 20:31N 51°19' E 003°13'0 0.0
2017-Feb-18 19:31N 51°19' E 003°13'0 0.0
2017-Feb-18 18:31N 51°19' E 003°13'0 0.0
2017-Feb-18 17:31N 51°19' E 003°13'0 0.0
2017-Feb-18 16:31N 51°19' E 003°13'0 0.0
2017-Feb-18 15:31N 51°19' E 003°13'0 0.0
2017-Feb-18 14:31N 51°19' E 003°13'1 0.8
2017-Feb-18 13:33N 51°18' E 003°14'0 0.0
2017-Feb-18 12:33N 51°18' E 003°14'0 0.0
2017-Feb-18 11:33N 51°18' E 003°14'0 0.0
2017-Feb-18 10:33N 51°18' E 003°14'0 0.0
2017-Feb-18 09:33N 51°18' E 003°14'0 0.0
2017-Feb-18 08:33N 51°18' E 003°14'0 0.0
2017-Feb-18 07:33N 51°18' E 003°14'0 0.0
2017-Feb-18 06:33N 51°18' E 003°14'0 0.0
2017-Feb-18 05:33N 51°18' E 003°14'0 0.0
2017-Feb-18 04:33N 51°18' E 003°14'0 0.0
2017-Feb-18 03:33N 51°18' E 003°14'0 0.0
2017-Feb-18 02:33N 51°18' E 003°14'0 0.0
2017-Feb-18 01:33N 51°18' E 003°14'0 0.0
2017-Feb-18 00:33N 51°18' E 003°14'0 0.0
2017-Feb-17 23:33N 51°18' E 003°14'0 0.0
2017-Feb-17 22:33N 51°18' E 003°14'0 0.0
2017-Feb-17 21:33N 51°18' E 003°14'0 0.0
2017-Feb-17 20:33N 51°18' E 003°14'0 0.0
2017-Feb-17 19:33N 51°18' E 003°14'0 0.0
2017-Feb-17 18:33N 51°18' E 003°14'0 0.0
2017-Feb-17 17:33N 51°18' E 003°14'0 0.0
2017-Feb-17 16:33N 51°18' E 003°14'0 0.0
2017-Feb-17 15:33N 51°18' E 003°14'0 0.0
2017-Feb-17 14:33N 51°18' E 003°14'0 0.0
2017-Feb-17 13:33N 51°18' E 003°14'2 1.7
2017-Feb-17 12:32N 51°20' E 003°13'1 0.6
2017-Feb-17 11:33N 51°20' E 003°13'5 4.5
2017-Feb-17 10:33N 51°24' E 003°07'8 7.6
2017-Feb-17 09:33N 51°22' E 002°55'9 8.7
2017-Feb-17 08:34N 51°25' E 002°42'21 2.9
2017-Feb-17 01:10N 51°45' E 002°53'4 7.3
2017-Feb-17 00:33N 51°44' E 002°47'8 7.9
2017-Feb-16 23:33N 51°36' E 002°43'1010.4
2017-Feb-16 22:33N 51°47' E 002°44'1312.5
2017-Feb-16 21:32N 51°59' E 002°47'3213.9
2017-Feb-16 19:15N 52°25' E 003°16'1214.4
2017-Feb-16 18:25N 52°35' E 003°28'4614.4
2017-Feb-16 15:15N 53°08' E 004°20'13613.4
2017-Feb-16 05:08N 53°52' E 007°56'1016.9
2017-Feb-16 04:33N 53°47' E 008°10'1515.5
2017-Feb-16 03:33N 53°37' E 008°30'4 3.7
2017-Feb-16 02:33N 53°33' E 008°34'0 0.4
2017-Feb-16 01:32N 53°34' E 008°34'0 0.0
2017-Feb-16 00:32N 53°34' E 008°34'0 0.0
2017-Feb-15 23:32N 53°34' E 008°34'0 0.0
2017-Feb-15 22:32N 53°34' E 008°34'0 0.0
2017-Feb-15 21:32N 53°34' E 008°34'0 0.0
2017-Feb-15 20:32N 53°34' E 008°34'0 0.0
2017-Feb-15 19:32N 53°34' E 008°34'0 0.0
2017-Feb-15 18:29N 53°34' E 008°34'0 0.0
2017-Feb-15 17:32N 53°34' E 008°34'0 0.0
2017-Feb-15 16:32N 53°34' E 008°34'0 0.0
2017-Feb-15 15:32N 53°34' E 008°34'0 0.0
2017-Feb-15 14:23N 53°34' E 008°34'0 0.0
2017-Feb-15 13:32N 53°34' E 008°34'0 0.0
2017-Feb-15 12:32N 53°34' E 008°34'0 0.0
2017-Feb-15 11:32N 53°34' E 008°34'  

Dump ship's entire track history